Terminal Aerodrome Forecast
Issued by NWS Charleston, WV

Current Version | Previous Version | Text Only | Print | Product List | Glossary Off
Versions: 1 2 3 4 5 6 7 8 9 10 11 12 13 14 15 16 17 18 19 20 21 22 23 24

391
FTUS41 KRLX 300535
TAFPKB
TAF
KPKB 300535Z 3006/0106 11003KT P6SM BKN110
     FM300900 11005KT 5SM -SHRA OVC060
     FM301100 17005KT 3SM SHRA VCTS OVC030CB
     FM301600 22007KT 6SM BR SCT008 OVC025
     FM302000 24008G18KT 5SM BR OVC030=

USA.gov is the U.S. government's official web portal to all federal, state and local government web resources and services.